Time;durP1;ratioP1;P1;durP2;ratioP2;P2;SDS_P1;SDS_P2;PMS_P1;PMS_P2;Temp;Humidity;BMP_temperature;BMP_pressure;BME280_temperature;BME280_humidity;BME280_pressure;Samples;Min_cycle;Max_cycle;Signal;HPM_P1;HPM_P2
2022/08/31 00:04:35;;;;;;;4.27;1.93;;;19.00;1.00;;;;;;6072977;23;20163;-95
2022/08/31 00:07:36;;;;;;;;;;;;;;;;;;;;;
2022/08/31 00:10:28;;;;;;;6.20;2.50;;;19.00;1.00;;;;;;6071750;23;20252;-95
2022/08/31 00:13:20;;;;;;;5.40;2.00;;;19.00;1.00;;;;;;6042250;23;20174;-95
2022/08/31 00:16:10;;;;;;;4.50;2.10;;;19.00;1.00;;;;;;6046657;23;20205;-96
2022/08/31 00:21:29;;;;;;;3.43;1.87;;;18.90;1.00;;;;;;6127766;23;20212;-96
2022/08/31 00:24:29;;;;;;;4.47;1.97;;;18.90;1.00;;;;;;6077327;23;20159;-95
2022/08/31 00:30:16;;;;;;;;;;;;;;;;;;;;;
2022/08/31 00:33:22;;;;;;;4.37;2.00;;;18.90;1.00;;;;;;6134242;23;20185;-96
2022/08/31 00:48:02;;;;;;;;;;;;;;;;;;;;;
2022/08/31 00:56:30;;;;;;;4.80;2.30;;;18.70;1.00;;;;;;6128966;23;20222;-94
2022/08/31 01:02:53;;;;;;;4.07;2.20;;;18.80;1.00;;;;;;6032044;23;20171;-95
2022/08/31 01:24:13;;;;;;;3.37;2.20;;;18.80;1.00;;;;;;6142669;23;20182;-94
2022/08/31 01:27:07;;;;;;;;;;;;;;;;;;;;;
2022/08/31 01:30:09;;;;;;;3.57;2.60;;;18.80;1.00;;;;;;6139187;23;20170;-94
2022/08/31 01:46:48;;;;;;;;;;;;;;;;;;;;;
2022/08/31 01:49:40;;;;;;;3.97;2.40;;;18.60;1.00;;;;;;6039702;23;20239;-95
2022/08/31 01:52:58;;;;;;;3.50;2.53;;;18.60;1.00;;;;;;6042944;23;20256;-96
2022/08/31 02:03:06;;;;;;;;;;;;;;;;;;;;;
2022/08/31 02:09:37;;;;;;;4.27;2.50;;;18.70;1.00;;;;;;5999601;23;20157;-95
2022/08/31 02:12:46;;;;;;;5.43;2.80;;;18.70;1.00;;;;;;6034462;23;20174;-96
2022/08/31 02:16:10;;;;;;;;;;;;;;;;;;;;;
2022/08/31 02:19:32;;;;;;;3.87;2.50;;;18.70;1.00;;;;;;5925839;24;20360;-96
2022/08/31 02:22:52;;;;;;;4.57;2.97;;;18.60;1.00;;;;;;5904974;24;20161;-95
2022/08/31 02:25:35;;;;;;;3.30;2.70;;;18.60;1.00;;;;;;5939141;24;20183;-94
2022/08/31 02:29:16;;;;;;;5.83;3.20;;;18.70;1.00;;;;;;5952149;24;20194;-94
2022/08/31 02:43:33;;;;;;;5.33;2.50;;;18.40;1.00;;;;;;6099487;23;20197;-96
2022/08/31 02:46:56;;;;;;;3.90;2.80;;;18.50;1.00;;;;;;6126850;23;20169;-95
2022/08/31 02:50:17;;;;;;;;;;;;;;;;;;;;;
2022/08/31 03:18:21;;;;;;;7.17;3.27;;;18.10;1.00;;;;;;5745640;25;20261;-95
2022/08/31 03:24:36;;;;;;;4.80;3.30;;;18.00;1.00;;;;;;5795302;24;20223;-95
2022/08/31 03:34:42;;;;;;;;;;;;;;;;;;;;;
2022/08/31 03:38:19;;;;;;;;;;;;;;;;;;;;;
2022/08/31 03:45:18;;;;;;;8.30;3.73;;;17.80;1.00;;;;;;6084431;23;20178;-96
2022/08/31 03:48:44;;;;;;;;;;;;;;;;;;;;;
2022/08/31 03:51:52;;;;;;;;;;;;;;;;;;;;;
2022/08/31 03:55:27;;;;;;;4.90;3.53;;;17.70;1.00;;;;;;6129980;23;20510;-95
2022/08/31 04:02:47;;;;;;;6.63;3.63;;;17.80;1.00;;;;;;5956366;24;20158;-96
2022/08/31 04:09:36;;;;;;;5.03;3.27;;;17.50;1.00;;;;;;5863986;24;20162;-96
2022/08/31 04:16:49;;;;;;;;;;;;;;;;;;;;;
2022/08/31 04:23:39;;;;;;;;;;;;;;;;;;;;;
2022/08/31 04:30:57;;;;;;;;;;;;;;;;;;;;;
2022/08/31 04:53:19;;;;;;;7.80;4.03;;;17.60;6.90;;;;;;6141610;23;20198;-94
2022/08/31 04:59:50;;;;;;;8.23;3.73;;;17.50;12.40;;;;;;5992950;24;20162;-96
2022/08/31 05:03:30;;;;;;;;;;;;;;;;;;;;;
2022/08/31 05:06:44;;;;;;;6.10;3.70;;;17.50;13.40;;;;;;5987541;24;20183;-96
2022/08/31 06:04:52;;;;;;;7.27;4.20;;;17.40;20.00;;;;;;6106426;23;20666;-93
2022/08/31 06:07:18;;;;;;;6.63;4.60;;;17.50;20.00;;;;;;6100651;23;20156;-94
2022/08/31 06:10:04;;;;;;;6.17;4.30;;;17.50;20.30;;;;;;6076177;23;20157;-95
2022/08/31 06:12:33;;;;;;;7.63;3.83;;;17.40;19.50;;;;;;6074557;23;20163;-94
2022/08/31 06:15:03;;;;;;;8.70;4.13;;;17.40;18.90;;;;;;6087100;23;20174;-93
2022/08/31 06:17:31;;;;;;;8.00;4.40;;;17.60;18.20;;;;;;6098693;23;20140;-93
2022/08/31 06:23:21;;;;;;;7.53;3.67;;;17.80;12.40;;;;;;6111309;23;20206;-96
2022/08/31 06:26:04;;;;;;;7.03;4.47;;;17.80;3.40;;;;;;6108321;23;20149;-94
2022/08/31 06:28:51;;;;;;;5.73;3.53;;;17.80;4.00;;;;;;6107589;23;20151;-92
2022/08/31 06:31:24;;;;;;;7.63;3.80;;;17.70;6.10;;;;;;6108966;23;20182;-96
2022/08/31 06:33:51;;;;;;;7.73;3.80;;;17.70;5.40;;;;;;6106941;23;20148;-93
2022/08/31 06:36:19;;;;;;;10.23;4.63;;;17.60;8.20;;;;;;6104358;23;20151;-84
2022/08/31 06:38:45;;;;;;;9.13;5.13;;;17.80;24.70;;;;;;6128785;23;20141;-84
2022/08/31 06:41:23;;;;;;;7.90;4.73;;;18.00;14.10;;;;;;6101500;23;20592;-83
2022/08/31 06:43:49;;;;;;;8.33;4.33;;;18.30;8.70;;;;;;6127696;23;20131;-84
2022/08/31 06:46:16;;;;;;;5.77;3.80;;;18.40;1.00;;;;;;6105870;23;20151;-89
2022/08/31 06:48:43;;;;;;;6.97;4.03;;;18.10;1.00;;;;;;6110071;23;20153;-91
2022/08/31 06:51:11;;;;;;;5.17;3.97;;;17.80;1.00;;;;;;6107694;23;20206;-91
2022/08/31 06:53:43;;;;;;;5.83;4.10;;;17.60;6.40;;;;;;6120362;23;20151;-92
2022/08/31 06:56:13;;;;;;;8.13;4.50;;;17.60;13.20;;;;;;6121445;23;20156;-92
2022/08/31 06:58:42;;;;;;;11.03;5.43;;;17.70;11.40;;;;;;6112539;23;20155;-93
2022/08/31 07:01:16;;;;;;;5.60;4.37;;;17.60;10.50;;;;;;6108556;23;20158;-94
2022/08/31 07:03:45;;;;;;;10.20;4.73;;;17.70;10.30;;;;;;6107391;23;20473;-94
2022/08/31 07:06:16;;;;;;;7.77;4.43;;;17.80;7.60;;;;;;6107973;23;20152;-94
2022/08/31 07:08:53;;;;;;;6.40;4.40;;;17.90;1.00;;;;;;6108732;23;20159;-93
2022/08/31 07:11:43;;;;;;;8.67;4.50;;;17.70;3.10;;;;;;6105427;23;20548;-94
2022/08/31 07:14:11;;;;;;;7.23;4.10;;;17.80;6.40;;;;;;6108867;23;20243;-94
2022/08/31 07:16:38;;;;;;;11.50;4.63;;;17.90;1.00;;;;;;6111436;23;20147;-91
2022/08/31 07:19:05;;;;;;;7.77;4.60;;;17.80;1.00;;;;;;6103825;23;20180;-92
2022/08/31 07:21:40;;;;;;;5.23;4.13;;;17.80;3.00;;;;;;6105897;23;20230;-93
2022/08/31 07:24:06;;;;;;;5.30;4.47;;;17.90;1.00;;;;;;6103677;23;20167;-90
2022/08/31 07:26:36;;;;;;;7.67;4.80;;;18.10;1.00;;;;;;6108474;23;20166;-92
2022/08/31 07:29:04;;;;;;;5.37;4.20;;;18.20;1.00;;;;;;6107340;23;20143;-92
2022/08/31 07:31:36;;;;;;;7.90;4.57;;;18.20;1.00;;;;;;6107278;23;20229;-94
2022/08/31 07:34:06;;;;;;;10.33;4.93;;;18.20;1.00;;;;;;6105976;23;20147;-94
2022/08/31 07:42:07;;;;;;;6.93;4.67;;;18.10;1.00;;;;;;6110867;23;20148;-93
2022/08/31 07:42:16;;;;;;;8.97;4.47;;;18.10;1.00;;;;;;6133097;23;20473;-94
2022/08/31 07:44:50;;;;;;;6.97;4.23;;;18.30;1.00;;;;;;6106331;23;20150;-94
2022/08/31 07:47:19;;;;;;;5.83;4.60;;;18.40;1.00;;;;;;6103720;23;20147;-95
2022/08/31 07:50:30;;;;;;;8.07;4.60;;;18.30;1.00;;;;;;6110861;23;20147;-94
2022/08/31 07:52:57;;;;;;;7.47;4.50;;;18.30;1.00;;;;;;6115983;23;20163;-95
2022/08/31 07:55:28;;;;;;;7.33;4.47;;;18.40;1.00;;;;;;6116336;23;20146;-93
2022/08/31 07:57:54;;;;;;;11.27;4.77;;;18.40;1.00;;;;;;6099235;23;20150;-93
2022/08/31 08:00:26;;;;;;;8.40;4.57;;;18.50;1.00;;;;;;6114450;23;20243;-93
2022/08/31 08:02:52;;;;;;;11.67;4.53;;;18.50;1.00;;;;;;6110621;23;20160;-87
2022/08/31 08:05:21;;;;;;;7.90;4.57;;;18.70;1.00;;;;;;6101645;23;20242;-88
2022/08/31 08:08:12;;;;;;;8.83;4.67;;;19.00;1.00;;;;;;6115103;23;20154;-96
2022/08/31 08:11:07;;;;;;;7.10;4.30;;;18.80;1.00;;;;;;6117221;23;20218;-95
2022/08/31 08:17:19;;;;;;;10.17;5.33;;;18.90;1.00;;;;;;6152113;23;20149;-94
2022/08/31 08:20:18;;;;;;;7.07;4.50;;;18.80;1.00;;;;;;6110627;23;20146;-93
2022/08/31 08:22:44;;;;;;;8.63;4.90;;;18.80;1.00;;;;;;6152646;23;20183;-92
2022/08/31 08:25:50;;;;;;;9.63;4.33;;;18.70;1.00;;;;;;6102147;23;20215;-90
2022/08/31 08:28:17;;;;;;;6.87;4.63;;;18.70;1.00;;;;;;6063216;23;20160;-89
2022/08/31 08:30:49;;;;;;;8.90;4.43;;;18.90;1.00;;;;;;6098930;23;20183;-86
2022/08/31 08:33:16;;;;;;;7.53;4.43;;;19.20;1.00;;;;;;6127407;23;20155;-87
2022/08/31 08:35:42;;;;;;;5.43;4.07;;;19.40;1.00;;;;;;6101338;23;20175;-87
2022/08/31 08:38:08;;;;;;;9.23;4.47;;;19.50;1.00;;;;;;6103169;23;20145;-87
2022/08/31 08:40:41;;;;;;;8.17;4.30;;;19.60;1.00;;;;;;6105665;23;20180;-93
2022/08/31 08:43:15;;;;;;;6.20;4.47;;;19.70;1.00;;;;;;6118062;23;20148;-91
2022/08/31 08:45:45;;;;;;;5.47;4.07;;;19.50;1.00;;;;;;6127825;23;20166;-90
2022/08/31 08:48:21;;;;;;;8.03;5.10;;;19.50;1.00;;;;;;6127254;23;20168;-93
2022/08/31 08:50:51;;;;;;;8.80;4.40;;;19.30;1.00;;;;;;6118870;23;20204;-92
2022/08/31 08:53:24;;;;;;;7.90;5.03;;;19.40;1.00;;;;;;6091367;23;20202;-94
2022/08/31 08:55:50;;;;;;;7.07;4.37;;;19.60;1.00;;;;;;6110430;23;20621;-95
2022/08/31 08:58:18;;;;;;;8.33;4.70;;;19.80;1.00;;;;;;6112625;23;20285;-96
2022/08/31 09:00:52;;;;;;;8.10;4.60;;;20.00;1.00;;;;;;6144392;23;20167;-94
2022/08/31 09:03:58;;;;;;;8.47;4.80;;;19.90;1.00;;;;;;6121112;23;20221;-92
2022/08/31 09:09:38;;;;;;;5.90;4.63;;;19.90;1.00;;;;;;6137244;23;20214;-94
2022/08/31 09:12:45;;;;;;;11.93;5.40;;;20.00;1.00;;;;;;6152503;23;20189;-95
2022/08/31 09:16:06;;;;;;;7.07;4.93;;;19.90;1.00;;;;;;6036759;23;20153;-96
2022/08/31 09:22:23;;;;;;;5.53;3.60;;;20.10;1.00;;;;;;6137749;23;20225;-92
2022/08/31 09:25:04;;;;;;;7.90;4.50;;;20.20;1.00;;;;;;6120527;23;20191;-96
2022/08/31 09:27:56;;;;;;;5.83;4.10;;;20.20;1.00;;;;;;6125328;23;20170;-93
2022/08/31 09:31:08;;;;;;;8.77;4.10;;;20.30;1.00;;;;;;6121863;23;20196;-94
2022/08/31 09:34:35;;;;;;;7.23;4.10;;;20.10;1.00;;;;;;6141693;23;20143;-95
2022/08/31 09:37:45;;;;;;;6.73;4.80;;;20.10;1.00;;;;;;6031370;23;20145;-92
2022/08/31 09:40:22;;;;;;;8.03;4.60;;;20.10;1.00;;;;;;6001496;23;20225;-95
2022/08/31 09:43:47;;;;;;;6.63;4.37;;;20.30;1.00;;;;;;6011163;23;20140;-93
2022/08/31 09:46:58;;;;;;;8.87;4.93;;;20.40;1.00;;;;;;6028191;23;20185;-94
2022/08/31 09:49:36;;;;;;;9.60;4.20;;;20.70;1.00;;;;;;6133771;23;20158;-92
2022/08/31 09:55:26;;;;;;;6.33;4.20;;;20.80;1.00;;;;;;6121778;23;20228;-95
2022/08/31 09:58:29;;;;;;;7.17;4.33;;;20.60;1.00;;;;;;6144115;23;20161;-92
2022/08/31 10:02:01;;;;;;;7.73;4.03;;;20.60;1.00;;;;;;6134760;23;20235;-91
2022/08/31 10:07:27;;;;;;;7.30;4.20;;;20.90;1.00;;;;;;6099169;23;20201;-92
2022/08/31 10:10:42;;;;;;;8.97;4.47;;;21.00;1.00;;;;;;6053705;23;20262;-96
2022/08/31 10:17:28;;;;;;;9.40;4.40;;;21.20;99.90;;;;;;6065734;23;20166;-91
2022/08/31 10:20:41;;;;;;;5.60;4.27;;;20.90;1.00;;;;;;6065755;23;20156;-94
2022/08/31 10:23:50;;;;;;;8.30;3.80;;;20.70;1.00;;;;;;6056605;23;20217;-92
2022/08/31 10:26:57;;;;;;;4.80;4.23;;;20.70;1.00;;;;;;6123085;23;20139;-93
2022/08/31 10:37:04;;;;;;;7.80;3.70;;;21.30;1.00;;;;;;6151946;23;20198;-92
2022/08/31 10:40:08;;;;;;;8.87;4.17;;;21.50;99.90;;;;;;6145673;23;20150;-93
2022/08/31 10:43:12;;;;;;;6.60;4.17;;;21.40;99.90;;;;;;6125305;23;20136;-92
2022/08/31 10:45:54;;;;;;;9.30;4.00;;;21.40;99.90;;;;;;6148997;23;20151;-94
2022/08/31 10:48:31;;;;;;;7.67;4.17;;;21.50;99.90;;;;;;6098627;23;20137;-94
2022/08/31 10:51:21;;;;;;;11.90;3.80;;;21.80;99.90;;;;;;6119516;23;20173;-93
2022/08/31 10:57:45;;;;;;;6.70;4.17;;;21.70;99.90;;;;;;6152404;23;20164;-94
2022/08/31 11:00:44;;;;;;;4.67;3.53;;;21.50;99.90;;;;;;6092095;23;20160;-94
2022/08/31 11:03:37;;;;;;;9.83;4.60;;;21.70;99.90;;;;;;6114015;23;20168;-92
2022/08/31 11:06:47;;;;;;;8.23;4.43;;;21.80;99.90;;;;;;6119100;23;20165;-93
2022/08/31 11:12:25;;;;;;;8.53;5.07;;;21.70;99.90;;;;;;6112393;23;20180;-95
2022/08/31 11:19:04;;;;;;;7.40;4.30;;;21.80;99.90;;;;;;6117385;23;20144;-92
2022/08/31 11:22:10;;;;;;;7.97;4.40;;;22.00;99.90;;;;;;6117168;23;20178;-93
2022/08/31 11:28:32;;;;;;;7.57;4.33;;;22.10;99.90;;;;;;6106497;23;20148;-91
2022/08/31 11:31:07;;;;;;;7.20;4.70;;;22.30;99.90;;;;;;6078857;23;20188;-92
2022/08/31 11:33:34;;;;;;;7.47;4.70;;;22.40;99.90;;;;;;6085146;23;20153;-93
2022/08/31 11:36:09;;;;;;;10.13;4.90;;;22.40;99.90;;;;;;6072839;23;20208;-92
2022/08/31 11:38:41;;;;;;;8.80;4.40;;;22.40;99.90;;;;;;6114960;23;20236;-90
2022/08/31 11:41:10;;;;;;;8.10;4.73;;;22.60;99.90;;;;;;6116994;23;20257;-90
2022/08/31 11:43:44;;;;;;;8.30;4.40;;;22.70;46.50;;;;;;6081630;23;20163;-90
2022/08/31 11:46:25;;;;;;;9.97;4.50;;;22.70;54.80;;;;;;6092015;23;20157;-93
2022/08/31 11:48:54;;;;;;;11.10;4.33;;;22.60;94.80;;;;;;6099715;23;20147;-94
2022/08/31 11:51:42;;;;;;;7.03;4.20;;;22.60;99.90;;;;;;6100273;23;20220;-93
2022/08/31 11:54:14;;;;;;;5.27;3.87;;;22.60;91.40;;;;;;6125181;23;20130;-95
2022/08/31 11:56:44;;;;;;;9.13;4.30;;;22.80;17.20;;;;;;6100250;23;20142;-94
2022/08/31 11:59:32;;;;;;;9.27;4.50;;;22.90;1.00;;;;;;6100318;23;20207;-93
2022/08/31 12:02:24;;;;;;;8.00;3.87;;;22.80;30.90;;;;;;6071688;23;20161;-88
2022/08/31 12:05:02;;;;;;;10.40;4.17;;;22.90;26.80;;;;;;6071001;23;20206;-91
2022/08/31 12:07:34;;;;;;;9.63;4.10;;;22.90;1.00;;;;;;6069618;23;20213;-89
2022/08/31 12:10:07;;;;;;;8.83;4.53;;;22.90;3.30;;;;;;6070523;23;20146;-92
2022/08/31 12:12:57;;;;;;;8.87;4.17;;;23.00;1.00;;;;;;6071809;23;20139;-92
2022/08/31 12:15:57;;;;;;;8.20;4.30;;;23.00;1.00;;;;;;6071149;23;20231;-90
2022/08/31 12:25:51;;;;;;;6.53;4.10;;;23.60;1.00;;;;;;6082014;23;20157;-92
2022/08/31 12:28:45;;;;;;;8.17;4.43;;;23.80;99.90;;;;;;6052648;23;20165;-91
2022/08/31 12:31:16;;;;;;;5.73;3.80;;;23.70;99.90;;;;;;6056783;23;20178;-89
2022/08/31 12:34:02;;;;;;;6.47;5.07;;;23.70;99.90;;;;;;6057731;23;20131;-90
2022/08/31 12:36:35;;;;;;;4.77;4.30;;;23.60;1.00;;;;;;6057613;23;20163;-92
2022/08/31 12:39:11;;;;;;;7.00;4.77;;;23.60;1.00;;;;;;6059590;23;20171;-91
2022/08/31 12:41:44;;;;;;;7.90;4.47;;;23.60;1.00;;;;;;6052849;23;20656;-90
2022/08/31 12:44:10;;;;;;;6.87;4.17;;;23.80;1.00;;;;;;6051668;23;20148;-92
2022/08/31 12:46:51;;;;;;;5.13;4.27;;;23.80;99.90;;;;;;6048605;23;20230;-94
2022/08/31 12:49:24;;;;;;;7.83;4.70;;;23.90;99.90;;;;;;6051197;23;20156;-93
2022/08/31 12:52:21;;;;;;;7.53;5.10;;;23.90;99.90;;;;;;6048865;23;20214;-92
2022/08/31 12:54:57;;;;;;;9.33;4.93;;;23.90;99.90;;;;;;6051153;23;20157;-92
2022/08/31 12:57:50;;;;;;;9.27;5.23;;;23.90;99.90;;;;;;6047429;23;20144;-92
2022/08/31 13:00:25;;;;;;;7.40;4.60;;;24.00;99.90;;;;;;6046677;23;20180;-91
2022/08/31 13:02:58;;;;;;;7.67;5.17;;;24.00;99.90;;;;;;6047987;23;20166;-95
2022/08/31 13:05:29;;;;;;;6.53;4.97;;;23.90;99.90;;;;;;6048524;23;20287;-96
2022/08/31 13:07:56;;;;;;;8.23;5.33;;;23.80;99.90;;;;;;6046443;23;20152;-92
2022/08/31 13:10:37;;;;;;;12.20;5.87;;;23.80;99.90;;;;;;6046538;23;20621;-89
2022/08/31 13:13:18;;;;;;;10.87;5.63;;;24.10;99.90;;;;;;6048626;23;20218;-93
2022/08/31 13:15:44;;;;;;;8.73;5.60;;;24.30;1.00;;;;;;6046948;23;20159;-94
2022/08/31 13:18:23;;;;;;;8.07;5.33;;;24.10;99.00;;;;;;6048138;23;20156;-94
2022/08/31 13:21:04;;;;;;;11.83;5.83;;;24.10;99.90;;;;;;6049262;23;20155;-92
2022/08/31 13:23:38;;;;;;;8.70;5.57;;;24.20;1.00;;;;;;6046572;23;20160;-92
2022/08/31 13:26:23;;;;;;;9.67;5.27;;;24.10;84.90;;;;;;6048263;23;20151;-93
2022/08/31 13:28:54;;;;;;;7.73;6.13;;;24.20;99.90;;;;;;6045977;23;20235;-90
2022/08/31 13:31:27;;;;;;;9.07;6.33;;;24.20;29.10;;;;;;6048595;23;20212;-91
2022/08/31 13:33:58;;;;;;;9.90;6.67;;;24.30;26.80;;;;;;6049213;23;20153;-88
2022/08/31 13:36:58;;;;;;;9.17;5.90;;;24.40;1.00;;;;;;6046059;23;20235;-91
2022/08/31 13:39:37;;;;;;;10.30;5.43;;;24.40;1.00;;;;;;6046698;23;20176;-92
2022/08/31 13:42:08;;;;;;;11.83;6.10;;;24.50;1.00;;;;;;6049880;23;20214;-93
2022/08/31 13:44:41;;;;;;;7.17;5.77;;;24.70;1.00;;;;;;6077738;23;20218;-93
2022/08/31 13:47:23;;;;;;;9.93;7.70;;;24.70;99.90;;;;;;6050385;23;20204;-91
2022/08/31 13:49:56;;;;;;;9.60;7.77;;;24.80;99.90;;;;;;6049380;23;20145;-92
2022/08/31 13:52:28;;;;;;;12.30;8.80;;;24.90;99.90;;;;;;6055772;23;20232;-93
2022/08/31 13:55:10;;;;;;;15.17;8.50;;;25.00;1.00;;;;;;6063553;23;20149;-94
2022/08/31 13:57:37;;;;;;;13.13;8.60;;;25.10;1.00;;;;;;6067865;23;20168;-91
2022/08/31 14:00:34;;;;;;;11.50;9.43;;;25.10;1.00;;;;;;6063415;23;20176;-94
2022/08/31 14:03:48;;;;;;;11.40;8.03;;;24.90;1.00;;;;;;6088033;23;20146;-93
2022/08/31 14:06:49;;;;;;;12.83;9.90;;;25.00;1.00;;;;;;5974789;23;20143;-92
2022/08/31 14:09:18;;;;;;;14.27;10.17;;;25.10;99.90;;;;;;6065749;23;20261;-92
2022/08/31 14:11:52;;;;;;;14.07;11.30;;;24.90;99.90;;;;;;6066360;23;20180;-95
2022/08/31 14:14:33;;;;;;;16.10;11.73;;;25.00;1.00;;;;;;6062893;23;20239;-92
2022/08/31 14:17:07;;;;;;;13.23;11.47;;;25.20;1.00;;;;;;6053507;23;20152;-89
2022/08/31 14:19:37;;;;;;;14.47;10.00;;;25.30;99.90;;;;;;6049256;23;20210;-92
2022/08/31 14:22:43;;;;;;;13.37;9.27;;;25.50;99.90;;;;;;6056809;23;20160;-90
2022/08/31 14:25:11;;;;;;;16.60;12.20;;;25.50;99.90;;;;;;6011984;23;20147;-90
2022/08/31 14:27:40;;;;;;;15.10;12.07;;;25.50;1.00;;;;;;6055279;23;20156;-91
2022/08/31 14:30:12;;;;;;;12.80;10.70;;;25.40;99.90;;;;;;6053945;23;20148;-90
2022/08/31 14:32:42;;;;;;;11.03;8.67;;;25.50;99.90;;;;;;6047554;23;20172;-90
2022/08/31 14:35:11;;;;;;;13.60;7.93;;;25.60;1.00;;;;;;6047570;23;20171;-93
2022/08/31 14:37:42;;;;;;;13.47;8.03;;;25.80;1.00;;;;;;6048762;23;20153;-92
2022/08/31 14:40:12;;;;;;;11.57;7.47;;;26.00;99.90;;;;;;6047653;23;20184;-92
2022/08/31 14:42:39;;;;;;;10.03;7.00;;;25.90;99.90;;;;;;6056671;23;20179;-93
2022/08/31 14:45:07;;;;;;;11.20;8.10;;;25.80;1.00;;;;;;6068045;23;20172;-93
2022/08/31 14:47:42;;;;;;;8.53;6.10;;;25.70;1.00;;;;;;6066360;23;20137;-91
2022/08/31 14:50:12;;;;;;;8.93;5.70;;;25.80;99.90;;;;;;6057561;23;20585;-91
2022/08/31 14:53:01;;;;;;;8.33;4.90;;;26.00;54.70;;;;;;6052029;23;20172;-90
2022/08/31 14:55:29;;;;;;;7.00;5.10;;;26.20;99.90;;;;;;6052874;23;20148;-92
2022/08/31 14:58:12;;;;;;;9.30;4.40;;;26.10;99.90;;;;;;6051693;23;20530;-88
2022/08/31 15:00:44;;;;;;;11.20;4.40;;;25.70;1.00;;;;;;6052974;23;20166;-89
2022/08/31 15:03:13;;;;;;;6.87;4.20;;;25.60;98.00;;;;;;6052834;23;20149;-91
2022/08/31 15:05:46;;;;;;;8.83;4.40;;;25.50;1.00;;;;;;6054417;23;20149;-92
2022/08/31 15:08:20;;;;;;;7.17;3.93;;;25.50;1.00;;;;;;6055219;23;20180;-93
2022/08/31 15:10:46;;;;;;;7.80;4.20;;;25.60;99.90;;;;;;6051826;23;20210;-94
2022/08/31 15:13:11;;;;;;;11.43;4.13;;;25.40;99.90;;;;;;6055597;23;20147;-92
2022/08/31 15:15:38;;;;;;;5.90;3.77;;;25.50;99.90;;;;;;6057224;23;20247;-91
2022/08/31 15:18:06;;;;;;;7.23;3.93;;;25.60;1.00;;;;;;6061051;23;20219;-92
2022/08/31 15:20:40;;;;;;;9.57;3.97;;;25.70;1.00;;;;;;6059231;23;20491;-91
2022/08/31 15:23:17;;;;;;;4.93;3.60;;;25.80;1.00;;;;;;6049469;23;20240;-93
2022/08/31 15:25:44;;;;;;;5.50;3.67;;;25.80;1.00;;;;;;6048987;23;20188;-91
2022/08/31 15:28:09;;;;;;;5.77;3.70;;;25.80;99.90;;;;;;6049524;23;20163;-92
2022/08/31 15:30:38;;;;;;;8.43;4.10;;;25.60;1.00;;;;;;6050350;23;20183;-91
2022/08/31 15:33:07;;;;;;;9.87;4.17;;;25.80;26.90;;;;;;6069632;23;20233;-93
2022/08/31 15:35:34;;;;;;;9.50;4.40;;;25.70;1.00;;;;;;6049573;23;20152;-93
2022/08/31 15:38:05;;;;;;;8.03;4.70;;;25.80;99.90;;;;;;6052553;23;20153;-92
2022/08/31 15:40:34;;;;;;;6.87;4.00;;;25.90;1.00;;;;;;6051124;23;20172;-92
2022/08/31 15:43:15;;;;;;;5.73;3.80;;;25.80;1.00;;;;;;6048882;23;20179;-93
2022/08/31 15:45:41;;;;;;;10.90;4.10;;;25.80;1.00;;;;;;6075149;23;20581;-92
2022/08/31 15:50:58;;;;;;;8.23;5.40;;;25.80;99.90;;;;;;6073025;23;20198;-93
2022/08/31 15:53:29;;;;;;;7.67;5.73;;;26.00;99.90;;;;;;6048986;23;20160;-92
2022/08/31 15:56:04;;;;;;;11.17;6.87;;;26.30;99.90;;;;;;6050758;23;20210;-92
2022/08/31 15:58:40;;;;;;;9.03;6.43;;;26.30;99.90;;;;;;6051205;23;20209;-93
2022/08/31 16:01:12;;;;;;;10.10;7.00;;;26.20;1.00;;;;;;6071193;23;20194;-94
2022/08/31 16:03:51;;;;;;;8.47;6.17;;;26.20;19.60;;;;;;6094179;23;20136;-92
2022/08/31 16:06:20;;;;;;;9.60;5.00;;;26.30;99.90;;;;;;6070469;23;20152;-93
2022/08/31 16:08:54;;;;;;;7.70;4.73;;;26.10;1.00;;;;;;6095504;23;20133;-91
2022/08/31 16:11:28;;;;;;;9.20;4.37;;;26.00;99.90;;;;;;6067466;23;20199;-94
2022/08/31 16:14:01;;;;;;;10.83;4.10;;;26.00;1.00;;;;;;6061892;23;20243;-92
2022/08/31 16:16:32;;;;;;;8.70;3.83;;;26.00;99.90;;;;;;6058318;23;20172;-92
2022/08/31 16:18:57;;;;;;;8.93;4.03;;;25.90;99.90;;;;;;6053468;23;20223;-91
2022/08/31 16:21:25;;;;;;;6.90;4.17;;;25.80;1.00;;;;;;6089725;23;20136;-94
2022/08/31 16:23:59;;;;;;;6.10;3.30;;;25.60;1.00;;;;;;6070970;23;20200;-92
2022/08/31 16:26:35;;;;;;;7.53;4.13;;;25.70;1.00;;;;;;6070527;23;20156;-91
2022/08/31 16:29:07;;;;;;;7.27;4.43;;;25.80;1.00;;;;;;6070304;23;20153;-92
2022/08/31 16:31:34;;;;;;;8.03;4.03;;;26.10;99.90;;;;;;6070284;23;20203;-91
2022/08/31 16:34:06;;;;;;;7.87;4.00;;;26.10;1.00;;;;;;6069279;23;20162;-92
2022/08/31 16:36:35;;;;;;;5.87;4.10;;;26.30;99.90;;;;;;6070979;23;20155;-92
2022/08/31 16:39:02;;;;;;;6.33;3.80;;;26.30;1.00;;;;;;6064492;23;20230;-90
2022/08/31 16:41:29;;;;;;;10.17;4.27;;;26.40;99.90;;;;;;6056980;23;20213;-92
2022/08/31 16:43:59;;;;;;;7.10;4.10;;;26.60;99.90;;;;;;6080097;23;20142;-91
2022/08/31 16:46:25;;;;;;;6.23;3.30;;;26.70;1.00;;;;;;6048292;23;20149;-91
2022/08/31 16:51:38;;;;;;;6.73;3.20;;;26.60;1.00;;;;;;6073449;23;20191;-89
2022/08/31 16:54:07;;;;;;;7.47;3.43;;;26.50;1.00;;;;;;6051550;23;20153;-88
2022/08/31 16:56:36;;;;;;;7.13;4.37;;;26.20;99.90;;;;;;6051190;23;20193;-89
2022/08/31 16:59:16;;;;;;;7.10;3.87;;;26.20;1.00;;;;;;6076658;23;20182;-89
2022/08/31 17:02:11;;;;;;;6.13;4.03;;;26.20;1.00;;;;;;6059794;23;20159;-91
2022/08/31 17:04:44;;;;;;;6.00;4.23;;;26.10;99.90;;;;;;6046781;23;20208;-93
2022/08/31 17:07:52;;;;;;;;;;;;;;;;;;;;;
2022/08/31 17:10:28;;;;;;;6.87;4.03;;;25.80;1.00;;;;;;6085153;23;20183;-91
2022/08/31 17:12:57;;;;;;;8.63;4.57;;;25.70;99.90;;;;;;6070000;23;20136;-88
2022/08/31 17:15:25;;;;;;;7.60;4.40;;;25.80;99.90;;;;;;6054175;23;20188;-90
2022/08/31 17:18:43;;;;;;;9.53;4.50;;;25.80;1.00;;;;;;6046963;23;20172;-90
2022/08/31 17:21:16;;;;;;;6.07;4.53;;;25.70;1.00;;;;;;6049456;23;20175;-88
2022/08/31 17:23:45;;;;;;;5.87;4.73;;;25.60;71.10;;;;;;6046989;23;20490;-90
2022/08/31 17:26:13;;;;;;;6.80;4.33;;;25.50;1.00;;;;;;6048963;23;20156;-89
2022/08/31 17:28:40;;;;;;;7.27;4.30;;;25.40;99.90;;;;;;6050604;23;20156;-90
2022/08/31 17:31:07;;;;;;;8.07;4.60;;;25.20;97.30;;;;;;6067348;23;20192;-90
2022/08/31 17:33:32;;;;;;;8.13;4.13;;;25.10;99.90;;;;;;6065204;23;20160;-90
2022/08/31 17:36:04;;;;;;;9.03;4.87;;;24.80;99.90;;;;;;6059091;23;20152;-93
2022/08/31 17:38:33;;;;;;;7.90;4.77;;;25.20;1.00;;;;;;6073737;23;20231;-92
2022/08/31 17:41:07;;;;;;;7.10;4.60;;;25.30;1.00;;;;;;6073981;23;20219;-90
2022/08/31 17:43:38;;;;;;;5.67;4.03;;;25.30;37.20;;;;;;6046216;23;20151;-89
2022/08/31 17:46:11;;;;;;;6.73;4.33;;;25.30;99.90;;;;;;6046033;23;20160;-92
2022/08/31 17:48:39;;;;;;;7.70;4.40;;;25.20;1.00;;;;;;6049232;23;20207;-91
2022/08/31 17:51:17;;;;;;;6.73;4.60;;;25.10;99.90;;;;;;6051919;23;20192;-90
2022/08/31 17:53:44;;;;;;;7.20;4.27;;;24.90;99.90;;;;;;6053981;23;20187;-89
2022/08/31 17:56:14;;;;;;;6.33;4.20;;;24.80;1.00;;;;;;6048232;23;20605;-86
2022/08/31 17:58:40;;;;;;;7.07;3.93;;;24.80;1.00;;;;;;6047298;23;20179;-90
2022/08/31 18:01:05;;;;;;;9.70;4.47;;;24.80;99.90;;;;;;6049614;23;20160;-92
2022/08/31 18:03:41;;;;;;;5.47;3.97;;;24.80;1.00;;;;;;6054780;23;20159;-92
2022/08/31 18:06:21;;;;;;;7.97;4.60;;;24.70;1.00;;;;;;6051211;23;20152;-92
2022/08/31 18:08:50;;;;;;;8.73;4.27;;;24.70;1.00;;;;;;6049464;23;20228;-92
2022/08/31 18:11:17;;;;;;;10.10;5.50;;;24.80;1.00;;;;;;6072073;23;20196;-91
2022/08/31 18:13:45;;;;;;;9.23;4.53;;;24.80;1.00;;;;;;6052473;23;20152;-94
2022/08/31 18:16:14;;;;;;;6.73;4.30;;;24.70;99.90;;;;;;6044341;23;20160;-90
2022/08/31 18:18:46;;;;;;;8.87;4.53;;;24.70;46.50;;;;;;6044030;23;20163;-90
2022/08/31 18:21:21;;;;;;;10.07;4.43;;;24.70;99.90;;;;;;6045716;23;20299;-91
2022/08/31 18:23:56;;;;;;;5.63;4.23;;;24.60;99.90;;;;;;6045336;23;20206;-89
2022/08/31 18:26:42;;;;;;;10.60;4.63;;;24.50;1.00;;;;;;6052398;23;20154;-87
2022/08/31 18:29:12;;;;;;;8.73;4.40;;;24.50;1.00;;;;;;6051542;23;20151;-88
2022/08/31 18:31:40;;;;;;;8.07;4.27;;;24.50;1.00;;;;;;6050519;23;20180;-91
2022/08/31 18:34:09;;;;;;;8.77;4.87;;;24.40;15.80;;;;;;6053203;23;20166;-94
2022/08/31 18:36:42;;;;;;;8.63;4.40;;;24.30;99.90;;;;;;6075978;23;20141;-93
2022/08/31 18:39:16;;;;;;;8.73;4.30;;;24.40;99.90;;;;;;6050295;23;20191;-94
2022/08/31 18:47:14;;;;;;;11.67;4.80;;;24.30;99.90;;;;;;6079453;23;20152;-93
2022/08/31 18:49:41;;;;;;;10.17;4.47;;;24.30;99.90;;;;;;6049851;23;20144;-93
2022/08/31 18:52:21;;;;;;;9.10;4.10;;;24.30;99.90;;;;;;6051463;23;20176;-92
2022/08/31 18:54:53;;;;;;;12.00;4.50;;;24.20;99.90;;;;;;6054404;23;20547;-93
2022/08/31 18:57:34;;;;;;;7.30;4.13;;;24.20;99.90;;;;;;6052118;23;20211;-91
2022/08/31 19:00:05;;;;;;;6.93;4.00;;;24.10;99.90;;;;;;6050303;23;20159;-93
2022/08/31 19:02:32;;;;;;;14.87;4.80;;;24.10;1.00;;;;;;6051472;23;20171;-92
2022/08/31 19:04:58;;;;;;;8.90;4.40;;;24.10;1.00;;;;;;6054525;23;20156;-90
2022/08/31 19:07:24;;;;;;;7.37;3.87;;;24.10;1.00;;;;;;6050970;23;20158;-89
2022/08/31 19:09:51;;;;;;;7.33;4.10;;;23.90;1.00;;;;;;6051082;23;20234;-88
2022/08/31 19:12:23;;;;;;;8.43;4.73;;;23.80;1.00;;;;;;6076661;23;20175;-94